sensor_id;sensor_type;location;lat;lon;timestamp;temperature;humidity
71254;HTU21D;59019;47.638;18.966;2023-01-05T00:02:09;7.64;101.47
71254;HTU21D;59019;47.638;18.966;2023-01-05T00:04:35;7.64;101.32
71254;HTU21D;59019;47.638;18.966;2023-01-05T00:07:00;7.58;101.29
71254;HTU21D;59019;47.638;18.966;2023-01-05T00:09:28;7.50;101.32
71254;HTU21D;59019;47.638;18.966;2023-01-05T00:11:54;7.40;101.64
71254;HTU21D;59019;47.638;18.966;2023-01-05T00:14:38;7.19;102.64
71254;HTU21D;59019;47.638;18.966;2023-01-05T00:17:23;7.13;103.45
71254;HTU21D;59019;47.638;18.966;2023-01-05T00:20:17;7.19;103.07
71254;HTU21D;59019;47.638;18.966;2023-01-05T00:23:02;7.17;102.76
71254;HTU21D;59019;47.638;18.966;2023-01-05T00:25:30;7.04;103.52
71254;HTU21D;59019;47.638;18.966;2023-01-05T00:27:56;7.03;104.05
71254;HTU21D;59019;47.638;18.966;2023-01-05T00:30:26;7.08;103.86
71254;HTU21D;59019;47.638;18.966;2023-01-05T00:32:53;7.07;103.94
71254;HTU21D;59019;47.638;18.966;2023-01-05T00:35:19;7.15;103.98
71254;HTU21D;59019;47.638;18.966;2023-01-05T00:37:45;7.15;103.58
71254;HTU21D;59019;47.638;18.966;2023-01-05T00:40:13;7.12;103.41
71254;HTU21D;59019;47.638;18.966;2023-01-05T00:42:39;7.15;103.62
71254;HTU21D;59019;47.638;18.966;2023-01-05T00:45:08;7.15;103.58
71254;HTU21D;59019;47.638;18.966;2023-01-05T00:47:34;7.13;103.63
71254;HTU21D;59019;47.638;18.966;2023-01-05T00:49:59;7.08;103.86
71254;HTU21D;59019;47.638;18.966;2023-01-05T00:52:25;7.08;104.05
71254;HTU21D;59019;47.638;18.966;2023-01-05T00:54:50;7.05;104.08
71254;HTU21D;59019;47.638;18.966;2023-01-05T00:57:16;7.11;104.01
71254;HTU21D;59019;47.638;18.966;2023-01-05T00:59:41;7.12;103.99
71254;HTU21D;59019;47.638;18.966;2023-01-05T01:02:07;7.20;103.85
71254;HTU21D;59019;47.638;18.966;2023-01-05T01:04:33;7.20;103.81
71254;HTU21D;59019;47.638;18.966;2023-01-05T01:07:00;7.24;103.79
71254;HTU21D;59019;47.638;18.966;2023-01-05T01:09:26;7.19;103.88
71254;HTU21D;59019;47.638;18.966;2023-01-05T01:11:51;7.19;103.91
71254;HTU21D;59019;47.638;18.966;2023-01-05T01:14:17;7.19;103.76
71254;HTU21D;59019;47.638;18.966;2023-01-05T01:16:43;7.19;103.82
71254;HTU21D;59019;47.638;18.966;2023-01-05T01:19:21;7.24;103.95
71254;HTU21D;59019;47.638;18.966;2023-01-05T01:21:47;7.18;103.96
71254;HTU21D;59019;47.638;18.966;2023-01-05T01:24:33;7.18;103.87
71254;HTU21D;59019;47.638;18.966;2023-01-05T01:26:58;7.13;104.46
71254;HTU21D;59019;47.638;18.966;2023-01-05T01:29:24;7.13;104.78
71254;HTU21D;59019;47.638;18.966;2023-01-05T01:31:51;7.24;104.63
71254;HTU21D;59019;47.638;18.966;2023-01-05T01:34:17;7.29;104.13
71254;HTU21D;59019;47.638;18.966;2023-01-05T01:36:43;7.25;104.06
71254;HTU21D;59019;47.638;18.966;2023-01-05T01:39:09;7.27;103.93
71254;HTU21D;59019;47.638;18.966;2023-01-05T01:41:35;7.31;103.86
71254;HTU21D;59019;47.638;18.966;2023-01-05T01:44:01;7.39;103.75
71254;HTU21D;59019;47.638;18.966;2023-01-05T01:46:27;7.31;103.38
71254;HTU21D;59019;47.638;18.966;2023-01-05T01:49:06;7.35;103.46
71254;HTU21D;59019;47.638;18.966;2023-01-05T01:51:42;7.35;103.56
71254;HTU21D;59019;47.638;18.966;2023-01-05T01:54:12;7.42;104.62
71254;HTU21D;59019;47.638;18.966;2023-01-05T01:56:44;7.47;105.85
71254;HTU21D;59019;47.638;18.966;2023-01-05T01:59:12;7.49;106.74
71254;HTU21D;59019;47.638;18.966;2023-01-05T02:01:38;7.50;106.63
71254;HTU21D;59019;47.638;18.966;2023-01-05T02:04:04;7.55;106.30
71254;HTU21D;59019;47.638;18.966;2023-01-05T02:06:31;7.50;105.33
71254;HTU21D;59019;47.638;18.966;2023-01-05T02:08:56;7.47;104.13
71254;HTU21D;59019;47.638;18.966;2023-01-05T02:15:15;7.40;103.09
71254;HTU21D;59019;47.638;18.966;2023-01-05T02:18:00;7.38;102.77
71254;HTU21D;59019;47.638;18.966;2023-01-05T02:23:31;7.05;103.66
71254;HTU21D;59019;47.638;18.966;2023-01-05T02:34:18;6.99;104.73
71254;HTU21D;59019;47.638;18.966;2023-01-05T02:37:07;7.09;105.11
71254;HTU21D;59019;47.638;18.966;2023-01-05T02:39:38;7.15;104.44
71254;HTU21D;59019;47.638;18.966;2023-01-05T02:45:03;7.18;104.30
71254;HTU21D;59019;47.638;18.966;2023-01-05T02:48:02;7.20;104.32
71254;HTU21D;59019;47.638;18.966;2023-01-05T02:50:26;7.27;104.18
71254;HTU21D;59019;47.638;18.966;2023-01-05T02:52:59;7.31;104.07
71254;HTU21D;59019;47.638;18.966;2023-01-05T02:55:50;7.37;104.00
71254;HTU21D;59019;47.638;18.966;2023-01-05T02:58:20;7.31;103.72
71254;HTU21D;59019;47.638;18.966;2023-01-05T03:00:58;7.35;103.78
71254;HTU21D;59019;47.638;18.966;2023-01-05T03:03:35;7.42;103.71
71254;HTU21D;59019;47.638;18.966;2023-01-05T03:06:07;7.47;103.80
71254;HTU21D;59019;47.638;18.966;2023-01-05T03:08:39;7.47;103.46
71254;HTU21D;59019;47.638;18.966;2023-01-05T03:11:08;7.49;103.54
71254;HTU21D;59019;47.638;18.966;2023-01-05T03:14:00;7.41;103.53
71254;HTU21D;59019;47.638;18.966;2023-01-05T03:16:32;7.45;103.43
71254;HTU21D;59019;47.638;18.966;2023-01-05T03:19:01;7.47;103.57
71254;HTU21D;59019;47.638;18.966;2023-01-05T03:21:46;7.43;103.63
71254;HTU21D;59019;47.638;18.966;2023-01-05T03:24:33;7.47;103.80
71254;HTU21D;59019;47.638;18.966;2023-01-05T03:27:18;7.41;104.23
71254;HTU21D;59019;47.638;18.966;2023-01-05T03:30:02;7.32;104.56
71254;HTU21D;59019;47.638;18.966;2023-01-05T03:32:54;7.41;104.51
71254;HTU21D;59019;47.638;18.966;2023-01-05T03:35:42;7.33;103.84
71254;HTU21D;59019;47.638;18.966;2023-01-05T03:38:36;7.30;104.35
71254;HTU21D;59019;47.638;18.966;2023-01-05T03:41:04;7.27;104.30
71254;HTU21D;59019;47.638;18.966;2023-01-05T03:43:35;7.19;104.56
71254;HTU21D;59019;47.638;18.966;2023-01-05T03:46:09;7.12;104.81
71254;HTU21D;59019;47.638;18.966;2023-01-05T03:48:35;7.14;106.24
71254;HTU21D;59019;47.638;18.966;2023-01-05T03:51:00;7.12;105.81
71254;HTU21D;59019;47.638;18.966;2023-01-05T03:53:26;7.15;106.64
71254;HTU21D;59019;47.638;18.966;2023-01-05T03:55:52;7.05;105.76
71254;HTU21D;59019;47.638;18.966;2023-01-05T03:58:17;7.07;105.62
71254;HTU21D;59019;47.638;18.966;2023-01-05T04:00:43;7.02;104.89
71254;HTU21D;59019;47.638;18.966;2023-01-05T04:03:08;7.04;104.50
71254;HTU21D;59019;47.638;18.966;2023-01-05T04:05:35;6.90;103.96
71254;HTU21D;59019;47.638;18.966;2023-01-05T04:08:01;6.90;104.05
71254;HTU21D;59019;47.638;18.966;2023-01-05T04:10:26;6.89;103.89
71254;HTU21D;59019;47.638;18.966;2023-01-05T04:12:52;6.81;104.76
71254;HTU21D;59019;47.638;18.966;2023-01-05T04:15:18;6.82;105.23
71254;HTU21D;59019;47.638;18.966;2023-01-05T04:17:43;6.84;105.35
71254;HTU21D;59019;47.638;18.966;2023-01-05T04:20:09;6.93;105.29
71254;HTU21D;59019;47.638;18.966;2023-01-05T04:22:35;7.02;105.08
71254;HTU21D;59019;47.638;18.966;2023-01-05T04:25:00;6.98;105.39
71254;HTU21D;59019;47.638;18.966;2023-01-05T04:27:26;7.07;105.52
71254;HTU21D;59019;47.638;18.966;2023-01-05T04:29:52;7.02;105.76
71254;HTU21D;59019;47.638;18.966;2023-01-05T04:32:17;7.14;105.88
71254;HTU21D;59019;47.638;18.966;2023-01-05T04:34:43;7.10;105.70
71254;HTU21D;59019;47.638;18.966;2023-01-05T04:37:08;7.16;105.59
71254;HTU21D;59019;47.638;18.966;2023-01-05T04:39:34;7.19;105.47
71254;HTU21D;59019;47.638;18.966;2023-01-05T04:41:59;7.19;105.15
71254;HTU21D;59019;47.638;18.966;2023-01-05T04:44:25;7.16;105.11
71254;HTU21D;59019;47.638;18.966;2023-01-05T04:46:50;7.12;104.63
71254;HTU21D;59019;47.638;18.966;2023-01-05T04:49:16;7.13;104.43
71254;HTU21D;59019;47.638;18.966;2023-01-05T04:51:41;7.15;104.34
71254;HTU21D;59019;47.638;18.966;2023-01-05T04:54:07;7.08;104.67
71254;HTU21D;59019;47.638;18.966;2023-01-05T04:56:32;7.11;104.93
71254;HTU21D;59019;47.638;18.966;2023-01-05T04:58:58;7.07;105.12
71254;HTU21D;59019;47.638;18.966;2023-01-05T05:01:23;7.17;105.57
71254;HTU21D;59019;47.638;18.966;2023-01-05T05:03:49;7.23;106.02
71254;HTU21D;59019;47.638;18.966;2023-01-05T05:06:14;7.28;106.26
71254;HTU21D;59019;47.638;18.966;2023-01-05T05:08:41;7.41;105.99
71254;HTU21D;59019;47.638;18.966;2023-01-05T05:11:07;7.42;105.69
71254;HTU21D;59019;47.638;18.966;2023-01-05T05:13:33;7.42;105.40
71254;HTU21D;59019;47.638;18.966;2023-01-05T05:15:58;7.42;104.76
71254;HTU21D;59019;47.638;18.966;2023-01-05T05:18:24;7.46;104.00
71254;HTU21D;59019;47.638;18.966;2023-01-05T05:20:51;7.47;103.80
71254;HTU21D;59019;47.638;18.966;2023-01-05T05:23:17;7.38;103.54
71254;HTU21D;59019;47.638;18.966;2023-01-05T05:25:42;7.32;103.64
71254;HTU21D;59019;47.638;18.966;2023-01-05T05:28:08;7.27;103.55
71254;HTU21D;59019;47.638;18.966;2023-01-05T05:30:35;7.24;103.18
71254;HTU21D;59019;47.638;18.966;2023-01-05T05:33:01;7.27;102.80
71254;HTU21D;59019;47.638;18.966;2023-01-05T05:35:26;7.19;102.30
71254;HTU21D;59019;47.638;18.966;2023-01-05T05:37:52;7.14;102.69
71254;HTU21D;59019;47.638;18.966;2023-01-05T05:40:17;7.03;103.06
71254;HTU21D;59019;47.638;18.966;2023-01-05T05:42:43;6.96;103.35
71254;HTU21D;59019;47.638;18.966;2023-01-05T05:45:09;6.97;103.52
71254;HTU21D;59019;47.638;18.966;2023-01-05T05:47:34;6.97;103.33
71254;HTU21D;59019;47.638;18.966;2023-01-05T05:50:00;7.04;102.99
71254;HTU21D;59019;47.638;18.966;2023-01-05T05:52:25;7.00;102.80
71254;HTU21D;59019;47.638;18.966;2023-01-05T05:54:51;6.97;102.66
71254;HTU21D;59019;47.638;18.966;2023-01-05T05:57:16;6.97;102.35
71254;HTU21D;59019;47.638;18.966;2023-01-05T05:59:42;6.94;102.85
71254;HTU21D;59019;47.638;18.966;2023-01-05T06:02:07;6.91;103.17
71254;HTU21D;59019;47.638;18.966;2023-01-05T06:04:33;6.97;103.68
71254;HTU21D;59019;47.638;18.966;2023-01-05T06:06:58;6.91;103.89
71254;HTU21D;59019;47.638;18.966;2023-01-05T06:09:24;6.99;104.40
71254;HTU21D;59019;47.638;18.966;2023-01-05T06:11:49;6.99;103.61
71254;HTU21D;59019;47.638;18.966;2023-01-05T06:14:15;7.02;103.69
71254;HTU21D;59019;47.638;18.966;2023-01-05T06:16:40;6.95;103.15
71254;HTU21D;59019;47.638;18.966;2023-01-05T06:19:07;6.91;103.21
71254;HTU21D;59019;47.638;18.966;2023-01-05T06:21:33;6.91;102.85
71254;HTU21D;59019;47.638;18.966;2023-01-05T06:23:58;6.90;102.99
71254;HTU21D;59019;47.638;18.966;2023-01-05T06:26:24;6.90;102.92
71254;HTU21D;59019;47.638;18.966;2023-01-05T06:28:49;6.82;102.92
71254;HTU21D;59019;47.638;18.966;2023-01-05T06:31:15;6.83;103.05
71254;HTU21D;59019;47.638;18.966;2023-01-05T06:33:40;6.84;102.85
71254;HTU21D;59019;47.638;18.966;2023-01-05T06:36:06;6.90;102.56
71254;HTU21D;59019;47.638;18.966;2023-01-05T06:38:32;6.88;102.56
71254;HTU21D;59019;47.638;18.966;2023-01-05T06:40:57;6.87;103.09
71254;HTU21D;59019;47.638;18.966;2023-01-05T06:43:24;6.90;102.90
71254;HTU21D;59019;47.638;18.966;2023-01-05T06:45:49;6.99;102.97
71254;HTU21D;59019;47.638;18.966;2023-01-05T06:48:15;7.01;102.61
71254;HTU21D;59019;47.638;18.966;2023-01-05T06:50:41;7.05;102.55
71254;HTU21D;59019;47.638;18.966;2023-01-05T06:53:06;7.13;102.43
71254;HTU21D;59019;47.638;18.966;2023-01-05T06:55:32;7.14;102.51
71254;HTU21D;59019;47.638;18.966;2023-01-05T06:57:57;7.19;102.95
71254;HTU21D;59019;47.638;18.966;2023-01-05T07:00:23;7.28;102.95
71254;HTU21D;59019;47.638;18.966;2023-01-05T07:02:48;7.32;102.70
71254;HTU21D;59019;47.638;18.966;2023-01-05T07:05:14;7.41;103.18
71254;HTU21D;59019;47.638;18.966;2023-01-05T07:07:39;7.45;102.83
71254;HTU21D;59019;47.638;18.966;2023-01-05T07:10:05;7.45;102.20
71254;HTU21D;59019;47.638;18.966;2023-01-05T07:12:31;7.54;102.08
71254;HTU21D;59019;47.638;18.966;2023-01-05T07:14:57;7.58;101.42
71254;HTU21D;59019;47.638;18.966;2023-01-05T07:17:22;7.64;101.32
71254;HTU21D;59019;47.638;18.966;2023-01-05T07:19:48;7.79;101.40
71254;HTU21D;59019;47.638;18.966;2023-01-05T07:22:13;7.83;101.64
71254;HTU21D;59019;47.638;18.966;2023-01-05T07:24:39;7.84;101.79
71254;HTU21D;59019;47.638;18.966;2023-01-05T07:27:05;7.94;101.77
71254;HTU21D;59019;47.638;18.966;2023-01-05T07:29:30;7.98;101.60
71254;HTU21D;59019;47.638;18.966;2023-01-05T07:31:56;7.93;102.02
71254;HTU21D;59019;47.638;18.966;2023-01-05T07:34:22;8.00;102.15
71254;HTU21D;59019;47.638;18.966;2023-01-05T07:36:47;8.01;102.33
71254;HTU21D;59019;47.638;18.966;2023-01-05T07:39:14;8.04;102.34
71254;HTU21D;59019;47.638;18.966;2023-01-05T07:41:39;8.09;102.48
71254;HTU21D;59019;47.638;18.966;2023-01-05T07:44:05;8.14;102.34
71254;HTU21D;59019;47.638;18.966;2023-01-05T07:46:31;8.32;102.22
71254;HTU21D;59019;47.638;18.966;2023-01-05T07:48:57;8.36;101.83
71254;HTU21D;59019;47.638;18.966;2023-01-05T07:51:23;8.43;102.18
71254;HTU21D;59019;47.638;18.966;2023-01-05T07:53:49;8.51;101.80
71254;HTU21D;59019;47.638;18.966;2023-01-05T07:56:15;8.66;101.54
71254;HTU21D;59019;47.638;18.966;2023-01-05T07:58:40;8.77;100.84
71254;HTU21D;59019;47.638;18.966;2023-01-05T08:01:09;8.82;101.19
71254;HTU21D;59019;47.638;18.966;2023-01-05T08:03:35;8.91;100.58
71254;HTU21D;59019;47.638;18.966;2023-01-05T08:06:09;9.03;100.30
71254;HTU21D;59019;47.638;18.966;2023-01-05T08:08:35;9.11;99.71
71254;HTU21D;59019;47.638;18.966;2023-01-05T08:11:05;9.20;99.50
71254;HTU21D;59019;47.638;18.966;2023-01-05T08:13:31;9.35;99.13
71254;HTU21D;59019;47.638;18.966;2023-01-05T08:16:16;9.39;98.41
71254;HTU21D;59019;47.638;18.966;2023-01-05T08:18:41;9.44;98.47
71254;HTU21D;59019;47.638;18.966;2023-01-05T08:21:07;9.56;98.01
71254;HTU21D;59019;47.638;18.966;2023-01-05T08:23:34;9.67;98.13
71254;HTU21D;59019;47.638;18.966;2023-01-05T08:26:07;9.71;97.60
71254;HTU21D;59019;47.638;18.966;2023-01-05T08:28:36;9.90;96.91
71254;HTU21D;59019;47.638;18.966;2023-01-05T08:31:03;9.97;96.13
71254;HTU21D;59019;47.638;18.966;2023-01-05T08:33:29;10.00;95.64
71254;HTU21D;59019;47.638;18.966;2023-01-05T08:35:55;10.05;96.45
71254;HTU21D;59019;47.638;18.966;2023-01-05T08:38:21;10.12;95.82
71254;HTU21D;59019;47.638;18.966;2023-01-05T08:40:47;10.09;95.15
71254;HTU21D;59019;47.638;18.966;2023-01-05T08:43:12;10.16;94.91
71254;HTU21D;59019;47.638;18.966;2023-01-05T08:45:38;9.99;93.46
71254;HTU21D;59019;47.638;18.966;2023-01-05T08:48:04;9.95;94.36
71254;HTU21D;59019;47.638;18.966;2023-01-05T08:50:29;9.96;94.66
71254;HTU21D;59019;47.638;18.966;2023-01-05T08:52:56;10.03;94.52
71254;HTU21D;59019;47.638;18.966;2023-01-05T08:55:22;10.14;94.27
71254;HTU21D;59019;47.638;18.966;2023-01-05T08:57:47;10.24;95.73
71254;HTU21D;59019;47.638;18.966;2023-01-05T09:00:14;10.27;95.30
71254;HTU21D;59019;47.638;18.966;2023-01-05T09:02:42;10.30;95.27
71254;HTU21D;59019;47.638;18.966;2023-01-05T09:05:08;10.12;95.81
71254;HTU21D;59019;47.638;18.966;2023-01-05T09:07:33;10.33;95.94
71254;HTU21D;59019;47.638;18.966;2023-01-05T09:09:59;10.31;95.32
71254;HTU21D;59019;47.638;18.966;2023-01-05T09:12:24;10.14;95.48
71254;HTU21D;59019;47.638;18.966;2023-01-05T09:14:50;10.24;94.80
71254;HTU21D;59019;47.638;18.966;2023-01-05T09:17:16;10.28;94.54
71254;HTU21D;59019;47.638;18.966;2023-01-05T09:19:41;10.44;94.54
71254;HTU21D;59019;47.638;18.966;2023-01-05T09:22:07;10.31;93.88
71254;HTU21D;59019;47.638;18.966;2023-01-05T09:24:32;10.40;94.14
71254;HTU21D;59019;47.638;18.966;2023-01-05T09:26:58;10.46;94.75
71254;HTU21D;59019;47.638;18.966;2023-01-05T09:29:23;10.62;95.14
71254;HTU21D;59019;47.638;18.966;2023-01-05T09:31:49;10.88;93.04
71254;HTU21D;59019;47.638;18.966;2023-01-05T09:34:15;10.86;92.94
71254;HTU21D;59019;47.638;18.966;2023-01-05T09:36:40;10.68;93.10
71254;HTU21D;59019;47.638;18.966;2023-01-05T09:39:06;10.86;92.43
71254;HTU21D;59019;47.638;18.966;2023-01-05T09:41:35;10.71;91.29
71254;HTU21D;59019;47.638;18.966;2023-01-05T09:44:25;10.81;92.47
71254;HTU21D;59019;47.638;18.966;2023-01-05T09:46:53;11.07;92.14
71254;HTU21D;59019;47.638;18.966;2023-01-05T09:49:21;11.14;91.31
71254;HTU21D;59019;47.638;18.966;2023-01-05T09:51:53;11.38;90.63
71254;HTU21D;59019;47.638;18.966;2023-01-05T09:54:20;11.57;89.68
71254;HTU21D;59019;47.638;18.966;2023-01-05T09:56:48;11.32;89.12
71254;HTU21D;59019;47.638;18.966;2023-01-05T10:01:39;11.02;90.35
71254;HTU21D;59019;47.638;18.966;2023-01-05T10:04:11;11.13;89.73
71254;HTU21D;59019;47.638;18.966;2023-01-05T10:06:43;10.98;90.54
71254;HTU21D;59019;47.638;18.966;2023-01-05T10:09:16;10.96;91.51
71254;HTU21D;59019;47.638;18.966;2023-01-05T10:15:01;10.90;91.45
71254;HTU21D;59019;47.638;18.966;2023-01-05T10:17:33;10.99;91.16
71254;HTU21D;59019;47.638;18.966;2023-01-05T10:19:59;10.84;91.42
71254;HTU21D;59019;47.638;18.966;2023-01-05T10:25:37;10.51;93.70
71254;HTU21D;59019;47.638;18.966;2023-01-05T10:31:01;10.36;95.50
71254;HTU21D;59019;47.638;18.966;2023-01-05T10:46:40;9.83;99.13
71254;HTU21D;59019;47.638;18.966;2023-01-05T10:49:07;9.92;99.10
71254;HTU21D;59019;47.638;18.966;2023-01-05T10:51:32;9.77;99.08
71254;HTU21D;59019;47.638;18.966;2023-01-05T10:54:01;9.82;99.04
71254;HTU21D;59019;47.638;18.966;2023-01-05T10:56:27;9.75;99.34
71254;HTU21D;59019;47.638;18.966;2023-01-05T10:59:22;9.65;99.90
71254;HTU21D;59019;47.638;18.966;2023-01-05T11:01:48;9.71;99.93
71254;HTU21D;59019;47.638;18.966;2023-01-05T11:04:21;9.79;99.80
71254;HTU21D;59019;47.638;18.966;2023-01-05T11:06:49;9.72;100.43
71254;HTU21D;59019;47.638;18.966;2023-01-05T11:09:21;9.68;100.80
71254;HTU21D;59019;47.638;18.966;2023-01-05T11:12:03;9.56;101.76
71254;HTU21D;59019;47.638;18.966;2023-01-05T11:14:33;9.66;103.12
71254;HTU21D;59019;47.638;18.966;2023-01-05T11:17:05;9.57;102.41
71254;HTU21D;59019;47.638;18.966;2023-01-05T11:19:35;9.60;101.37
71254;HTU21D;59019;47.638;18.966;2023-01-05T11:22:01;9.57;98.97
71254;HTU21D;59019;47.638;18.966;2023-01-05T11:24:28;9.49;100.21
71254;HTU21D;59019;47.638;18.966;2023-01-05T11:26:57;9.53;101.57
71254;HTU21D;59019;47.638;18.966;2023-01-05T11:29:23;9.53;102.96
71254;HTU21D;59019;47.638;18.966;2023-01-05T11:32:03;9.65;103.28
71254;HTU21D;59019;47.638;18.966;2023-01-05T11:34:41;9.50;104.05
71254;HTU21D;59019;47.638;18.966;2023-01-05T11:40:03;9.35;105.40
71254;HTU21D;59019;47.638;18.966;2023-01-05T11:42:32;9.47;104.63
71254;HTU21D;59019;47.638;18.966;2023-01-05T11:45:06;9.57;104.03
71254;HTU21D;59019;47.638;18.966;2023-01-05T11:47:47;9.41;104.44
71254;HTU21D;59019;47.638;18.966;2023-01-05T11:50:23;9.44;104.74
71254;HTU21D;59019;47.638;18.966;2023-01-05T11:52:54;9.50;103.06
71254;HTU21D;59019;47.638;18.966;2023-01-05T11:57:47;9.41;103.30
71254;HTU21D;59019;47.638;18.966;2023-01-05T12:05:55;9.37;103.29
71254;HTU21D;59019;47.638;18.966;2023-01-05T12:08:43;9.53;103.00
71254;HTU21D;59019;47.638;18.966;2023-01-05T12:11:14;9.40;102.78
71254;HTU21D;59019;47.638;18.966;2023-01-05T12:17:14;9.29;103.41
71254;HTU21D;59019;47.638;18.966;2023-01-05T12:25:23;9.59;103.82
71254;HTU21D;59019;47.638;18.966;2023-01-05T12:30:49;9.71;103.58
71254;HTU21D;59019;47.638;18.966;2023-01-05T12:33:29;9.74;101.93
71254;HTU21D;59019;47.638;18.966;2023-01-05T12:42:02;9.45;102.94
71254;HTU21D;59019;47.638;18.966;2023-01-05T12:45:18;9.64;102.73
71254;HTU21D;59019;47.638;18.966;2023-01-05T12:47:51;9.59;101.48
71254;HTU21D;59019;47.638;18.966;2023-01-05T12:50:37;9.60;101.86
71254;HTU21D;59019;47.638;18.966;2023-01-05T12:59:02;9.55;101.66
71254;HTU21D;59019;47.638;18.966;2023-01-05T13:01:30;9.36;101.13
71254;HTU21D;59019;47.638;18.966;2023-01-05T13:07:06;9.31;102.12
71254;HTU21D;59019;47.638;18.966;2023-01-05T13:09:34;9.26;102.07
71254;HTU21D;59019;47.638;18.966;2023-01-05T13:12:06;9.27;102.23
71254;HTU21D;59019;47.638;18.966;2023-01-05T13:14:34;9.30;102.25
71254;HTU21D;59019;47.638;18.966;2023-01-05T13:17:23;9.30;101.81
71254;HTU21D;59019;47.638;18.966;2023-01-05T13:22:39;9.40;101.55
71254;HTU21D;59019;47.638;18.966;2023-01-05T13:25:16;9.30;102.15
71254;HTU21D;59019;47.638;18.966;2023-01-05T13:27:42;9.29;102.46
71254;HTU21D;59019;47.638;18.966;2023-01-05T13:30:18;9.23;102.46
71254;HTU21D;59019;47.638;18.966;2023-01-05T13:41:02;9.16;102.64
71254;HTU21D;59019;47.638;18.966;2023-01-05T13:54:02;8.77;102.29
71254;HTU21D;59019;47.638;18.966;2023-01-05T13:56:32;8.79;102.27
71254;HTU21D;59019;47.638;18.966;2023-01-05T13:59:12;8.85;101.93
71254;HTU21D;59019;47.638;18.966;2023-01-05T14:01:43;8.86;101.62
71254;HTU21D;59019;47.638;18.966;2023-01-05T14:04:35;8.85;101.33
71254;HTU21D;59019;47.638;18.966;2023-01-05T14:07:11;8.79;101.41
71254;HTU21D;59019;47.638;18.966;2023-01-05T14:09:45;8.76;101.29
71254;HTU21D;59019;47.638;18.966;2023-01-05T14:15:25;8.68;101.39
71254;HTU21D;59019;47.638;18.966;2023-01-05T14:17:51;8.61;101.28
71254;HTU21D;59019;47.638;18.966;2023-01-05T14:22:55;8.62;101.80
71254;HTU21D;59019;47.638;18.966;2023-01-05T14:25:54;8.64;101.40
71254;HTU21D;59019;47.638;18.966;2023-01-05T14:33:32;8.65;100.29
71254;HTU21D;59019;47.638;18.966;2023-01-05T14:36:28;8.68;99.91
71254;HTU21D;59019;47.638;18.966;2023-01-05T14:38:54;8.72;99.26
71254;HTU21D;59019;47.638;18.966;2023-01-05T14:41:22;8.71;99.20
71254;HTU21D;59019;47.638;18.966;2023-01-05T14:44:02;8.76;98.97
71254;HTU21D;59019;47.638;18.966;2023-01-05T14:46:44;8.79;98.97
71254;HTU21D;59019;47.638;18.966;2023-01-05T14:49:19;8.75;99.64
71254;HTU21D;59019;47.638;18.966;2023-01-05T14:51:55;8.77;99.72
71254;HTU21D;59019;47.638;18.966;2023-01-05T14:59:56;8.56;100.18
71254;HTU21D;59019;47.638;18.966;2023-01-05T15:02:30;8.50;100.23
71254;HTU21D;59019;47.638;18.966;2023-01-05T15:04:59;8.48;100.48
71254;HTU21D;59019;47.638;18.966;2023-01-05T15:07:38;8.45;99.98
71254;HTU21D;59019;47.638;18.966;2023-01-05T15:22:58;8.29;99.61
71254;HTU21D;59019;47.638;18.966;2023-01-05T15:36:25;8.31;98.55
71254;HTU21D;59019;47.638;18.966;2023-01-05T15:38:52;8.21;98.78
71254;HTU21D;59019;47.638;18.966;2023-01-05T15:41:20;8.22;98.66
71254;HTU21D;59019;47.638;18.966;2023-01-05T15:43:47;8.17;98.84
71254;HTU21D;59019;47.638;18.966;2023-01-05T15:46:21;8.11;99.65
71254;HTU21D;59019;47.638;18.966;2023-01-05T15:48:50;8.13;99.74
71254;HTU21D;59019;47.638;18.966;2023-01-05T15:51:24;8.11;99.34
71254;HTU21D;59019;47.638;18.966;2023-01-05T15:53:56;8.03;99.24
71254;HTU21D;59019;47.638;18.966;2023-01-05T15:58:52;8.07;98.72
71254;HTU21D;59019;47.638;18.966;2023-01-05T16:01:18;8.00;98.70
71254;HTU21D;59019;47.638;18.966;2023-01-05T16:03:45;7.99;98.43
71254;HTU21D;59019;47.638;18.966;2023-01-05T16:08:43;8.09;97.67
71254;HTU21D;59019;47.638;18.966;2023-01-05T16:11:10;8.11;97.40
71254;HTU21D;59019;47.638;18.966;2023-01-05T16:14:03;7.94;97.65
71254;HTU21D;59019;47.638;18.966;2023-01-05T16:16:42;8.06;97.29
71254;HTU21D;59019;47.638;18.966;2023-01-05T16:19:49;7.92;97.20
71254;HTU21D;59019;47.638;18.966;2023-01-05T16:25:20;7.97;96.78
71254;HTU21D;59019;47.638;18.966;2023-01-05T16:27:49;7.94;96.97
71254;HTU21D;59019;47.638;18.966;2023-01-05T16:30:28;7.92;96.74
71254;HTU21D;59019;47.638;18.966;2023-01-05T16:35:49;7.87;96.99
71254;HTU21D;59019;47.638;18.966;2023-01-05T16:38:28;7.87;96.65
71254;HTU21D;59019;47.638;18.966;2023-01-05T16:41:07;7.84;96.84
71254;HTU21D;59019;47.638;18.966;2023-01-05T16:51:13;8.03;96.59
71254;HTU21D;59019;47.638;18.966;2023-01-05T16:53:41;8.03;95.75
71254;HTU21D;59019;47.638;18.966;2023-01-05T16:58:59;8.05;95.54
71254;HTU21D;59019;47.638;18.966;2023-01-05T17:01:42;7.96;95.55
71254;HTU21D;59019;47.638;18.966;2023-01-05T17:04:12;7.98;95.53
71254;HTU21D;59019;47.638;18.966;2023-01-05T17:06:40;7.93;95.34
71254;HTU21D;59019;47.638;18.966;2023-01-05T17:11:46;8.01;95.31
71254;HTU21D;59019;47.638;18.966;2023-01-05T17:14:12;7.89;95.35
71254;HTU21D;59019;47.638;18.966;2023-01-05T17:16:38;7.87;95.53
71254;HTU21D;59019;47.638;18.966;2023-01-05T17:19:11;7.86;95.50
71254;HTU21D;59019;47.638;18.966;2023-01-05T17:21:40;7.91;95.10
71254;HTU21D;59019;47.638;18.966;2023-01-05T17:24:09;7.91;94.93
71254;HTU21D;59019;47.638;18.966;2023-01-05T17:26:38;7.93;95.20
71254;HTU21D;59019;47.638;18.966;2023-01-05T17:29:05;7.98;94.84
71254;HTU21D;59019;47.638;18.966;2023-01-05T17:31:34;7.98;94.57
71254;HTU21D;59019;47.638;18.966;2023-01-05T17:33:59;8.06;94.39
71254;HTU21D;59019;47.638;18.966;2023-01-05T17:36:28;7.96;94.17
71254;HTU21D;59019;47.638;18.966;2023-01-05T17:38:55;8.05;93.86
71254;HTU21D;59019;47.638;18.966;2023-01-05T17:41:20;8.00;94.18
71254;HTU21D;59019;47.638;18.966;2023-01-05T17:43:46;7.99;93.85
71254;HTU21D;59019;47.638;18.966;2023-01-05T17:46:17;8.02;93.80
71254;HTU21D;59019;47.638;18.966;2023-01-05T17:48:43;7.93;94.34
71254;HTU21D;59019;47.638;18.966;2023-01-05T17:51:09;8.03;93.98
71254;HTU21D;59019;47.638;18.966;2023-01-05T17:53:34;8.12;93.54
71254;HTU21D;59019;47.638;18.966;2023-01-05T17:56:00;8.22;93.27
71254;HTU21D;59019;47.638;18.966;2023-01-05T17:58:25;8.27;93.09
71254;HTU21D;59019;47.638;18.966;2023-01-05T18:00:51;8.29;92.79
71254;HTU21D;59019;47.638;18.966;2023-01-05T18:03:17;8.29;92.43
71254;HTU21D;59019;47.638;18.966;2023-01-05T18:05:48;8.17;92.77
71254;HTU21D;59019;47.638;18.966;2023-01-05T18:08:16;8.06;93.24